createdAt,value
2019-05-20T00:00:49.779Z,8.13
2019-05-20T00:03:18.374Z,9.77
2019-05-20T00:05:47.301Z,8.63
2019-05-20T00:08:16.116Z,8.47
2019-05-20T00:10:45.177Z,10.63
2019-05-20T00:13:13.849Z,12.00
2019-05-20T00:15:42.436Z,11.90
2019-05-20T00:18:11.030Z,10.37
2019-05-20T00:20:39.648Z,11.37
2019-05-20T00:23:08.235Z,11.40
2019-05-20T00:25:36.803Z,11.60
2019-05-20T00:28:05.517Z,23.47
2019-05-20T00:30:34.247Z,8.70
2019-05-20T00:33:02.832Z,14.93
2019-05-20T00:35:31.467Z,14.33
2019-05-20T00:38:00.049Z,12.27
2019-05-20T00:40:28.647Z,10.37
2019-05-20T00:42:57.315Z,13.90
2019-05-20T00:45:26.046Z,10.77
2019-05-20T00:47:54.627Z,11.67
2019-05-20T00:50:23.309Z,14.47
2019-05-20T00:52:52.036Z,14.83
2019-05-20T00:55:25.969Z,11.10
2019-05-20T00:57:54.762Z,11.37
2019-05-20T01:00:24.192Z,10.93
2019-05-20T01:02:57.025Z,9.73
2019-05-20T01:05:23.535Z,13.60
2019-05-20T01:07:52.123Z,15.57
2019-05-20T01:10:20.864Z,16.63
2019-05-20T01:12:49.497Z,10.37
2019-05-20T01:15:18.549Z,13.03
2019-05-20T01:17:47.139Z,10.47
2019-05-20T01:20:16.120Z,14.27
2019-05-20T01:22:44.704Z,14.30
2019-05-20T01:25:13.839Z,12.70
2019-05-20T01:27:42.437Z,10.20
2019-05-20T01:30:11.859Z,14.57
2019-05-20T01:32:40.516Z,25.10
2019-05-20T01:35:09.689Z,13.53
2019-05-20T01:37:38.254Z,11.30
2019-05-20T01:40:07.436Z,9.30
2019-05-20T01:42:36.087Z,11.33
2019-05-20T01:45:05.922Z,14.63
2019-05-20T01:47:34.508Z,14.37
2019-05-20T01:50:04.001Z,10.13
2019-05-20T01:52:32.590Z,14.77
2019-05-20T01:55:01.188Z,14.47
2019-05-20T01:57:29.816Z,12.13
2019-05-20T01:59:58.394Z,12.23
2019-05-20T02:02:26.976Z,15.90
2019-05-20T02:04:55.599Z,14.00
2019-05-20T02:07:24.269Z,15.83
2019-05-20T02:09:52.940Z,12.40
2019-05-20T02:12:21.576Z,13.20
2019-05-20T02:14:51.861Z,15.33
2019-05-20T02:17:20.410Z,11.20
2019-05-20T02:19:49.154Z,13.57
2019-05-20T02:22:17.738Z,14.67
2019-05-20T02:24:46.329Z,13.87
2019-05-20T02:27:14.958Z,17.97
2019-05-20T02:29:43.561Z,14.73
2019-05-20T02:32:12.144Z,15.27
2019-05-20T02:34:40.833Z,17.60
2019-05-20T02:37:09.481Z,11.43
2019-05-20T02:39:38.075Z,15.13
2019-05-20T02:42:06.881Z,12.07
2019-05-20T02:44:35.535Z,11.13
2019-05-20T02:47:04.204Z,12.40
2019-05-20T02:49:32.886Z,14.70
2019-05-20T02:52:01.503Z,13.40
2019-05-20T02:54:30.054Z,14.97
2019-05-20T02:56:58.810Z,12.63
2019-05-20T02:59:27.401Z,15.13
2019-05-20T03:01:55.989Z,13.23
2019-05-20T03:04:24.619Z,14.23
2019-05-20T03:06:53.193Z,9.60
2019-05-20T03:09:21.779Z,13.40
2019-05-20T03:11:50.428Z,13.30
2019-05-20T03:14:19.016Z,13.00
2019-05-20T03:16:47.609Z,11.43
2019-05-20T03:19:16.244Z,15.50
2019-05-20T03:21:44.904Z,14.27
2019-05-20T03:24:13.658Z,20.00
2019-05-20T03:26:42.361Z,14.80
2019-05-20T03:29:11.014Z,11.97
2019-05-20T03:31:39.597Z,14.17
2019-05-20T03:34:08.307Z,15.70
2019-05-20T03:36:36.885Z,15.00
2019-05-20T03:39:06.828Z,10.80
2019-05-20T03:41:35.457Z,15.73
2019-05-20T03:44:04.133Z,13.97
2019-05-20T03:46:32.719Z,15.47
2019-05-20T03:49:01.418Z,14.70
2019-05-20T03:51:30.012Z,17.00
2019-05-20T03:53:58.610Z,16.50
2019-05-20T03:56:27.244Z,12.27
2019-05-20T03:58:55.813Z,12.57
2019-05-20T04:01:24.395Z,15.30
2019-05-20T04:03:53.034Z,14.70
2019-05-20T04:06:21.608Z,16.50
2019-05-20T04:08:50.269Z,12.97
2019-05-20T04:11:18.886Z,15.90
2019-05-20T04:13:47.488Z,14.43
2019-05-20T04:16:16.078Z,15.33
2019-05-20T04:18:44.703Z,20.47
2019-05-20T04:21:13.294Z,14.80
2019-05-20T04:23:41.971Z,15.10
2019-05-20T04:26:10.634Z,13.60
2019-05-20T04:28:39.221Z,17.97
2019-05-20T04:31:07.814Z,11.40
2019-05-20T04:33:36.433Z,13.87
2019-05-20T04:36:05.022Z,12.50
2019-05-20T04:38:33.619Z,13.93
2019-05-20T04:41:02.244Z,14.10
2019-05-20T04:43:30.824Z,13.00
2019-05-20T04:45:59.867Z,13.73
2019-05-20T04:48:28.484Z,16.10
2019-05-20T04:50:57.133Z,14.20
2019-05-20T04:53:25.714Z,19.23
2019-05-20T04:55:54.426Z,17.20
2019-05-20T04:58:23.002Z,15.23
2019-05-20T05:00:53.621Z,14.93
2019-05-20T05:03:23.375Z,15.07
2019-05-20T05:05:52.260Z,11.73
2019-05-20T05:08:21.692Z,17.37
2019-05-20T05:10:50.655Z,20.97
2019-05-20T05:13:19.673Z,27.17
2019-05-20T05:15:48.595Z,32.20
2019-05-20T05:18:17.351Z,20.27
2019-05-20T05:20:46.182Z,20.70
2019-05-20T05:23:14.829Z,22.47
2019-05-20T05:25:43.448Z,27.53
2019-05-20T05:28:12.299Z,14.67
2019-05-20T05:30:41.295Z,24.53
2019-05-20T05:33:09.935Z,31.17
2019-05-20T05:35:52.294Z,27.03
2019-05-20T05:38:09.009Z,20.40
2019-05-20T05:40:37.650Z,20.73
2019-05-20T05:43:06.220Z,24.90
2019-05-20T05:45:35.442Z,21.10
2019-05-20T05:48:04.414Z,25.20
2019-05-20T05:50:33.150Z,24.63
2019-05-20T05:53:01.745Z,17.07
2019-05-20T05:55:30.444Z,15.63
2019-05-20T05:57:59.021Z,16.70
2019-05-20T06:00:27.842Z,16.27
2019-05-20T06:02:56.486Z,19.00
2019-05-20T06:05:25.141Z,15.90
2019-05-20T06:07:53.707Z,17.93
2019-05-20T06:10:22.394Z,17.87
2019-05-20T06:12:51.153Z,15.23
2019-05-20T06:15:20.621Z,13.60
2019-05-20T06:17:49.630Z,21.53
2019-05-20T06:20:20.196Z,19.57
2019-05-20T06:22:48.783Z,16.73
2019-05-20T06:25:17.783Z,17.40
2019-05-20T06:27:46.421Z,20.83
2019-05-20T06:30:16.774Z,15.80
2019-05-20T06:32:45.602Z,18.47
2019-05-20T06:35:15.933Z,14.70
2019-05-20T06:37:46.689Z,15.10
2019-05-20T06:40:16.255Z,20.23
2019-05-20T06:42:44.926Z,17.47
2019-05-20T06:45:13.761Z,21.30
2019-05-20T06:47:42.386Z,16.57
2019-05-20T06:50:12.326Z,20.00
2019-05-20T06:52:40.975Z,18.20
2019-05-20T06:55:09.926Z,16.87
2019-05-20T06:57:38.526Z,21.93
2019-05-20T07:00:08.539Z,13.93
2019-05-20T07:02:37.233Z,15.47
2019-05-20T07:05:07.624Z,22.03
2019-05-20T07:07:36.363Z,18.03
2019-05-20T07:10:07.603Z,13.87
2019-05-20T07:12:41.049Z,18.33
2019-05-20T07:15:08.235Z,19.23
2019-05-20T07:17:36.861Z,19.23
2019-05-20T07:20:08.461Z,15.57
2019-05-20T07:22:54.533Z,19.40
2019-05-20T07:25:08.264Z,17.83
2019-05-20T07:27:36.907Z,20.13
2019-05-20T07:30:09.346Z,18.10
2019-05-20T07:32:38.149Z,16.07
2019-05-20T07:35:07.698Z,14.83
2019-05-20T07:37:36.300Z,24.30
2019-05-20T07:40:06.064Z,17.70
2019-05-20T07:42:34.665Z,15.03
2019-05-20T07:45:03.426Z,19.90
2019-05-20T07:47:32.430Z,17.00
2019-05-20T07:50:01.262Z,14.23
2019-05-20T07:52:30.295Z,18.50
2019-05-20T07:55:00.161Z,17.97
2019-05-20T07:57:31.923Z,16.87
2019-05-20T08:00:00.990Z,16.70
2019-05-20T08:02:30.662Z,17.90
2019-05-20T08:04:59.266Z,15.33
2019-05-20T08:07:49.915Z,19.33
2019-05-20T08:09:58.386Z,13.90
2019-05-20T08:12:27.106Z,19.80
2019-05-20T08:14:55.766Z,18.50
2019-05-20T08:17:24.987Z,19.53
2019-05-20T08:19:53.591Z,15.47
2019-05-20T08:22:22.255Z,19.80
2019-05-20T08:24:50.953Z,23.43
2019-05-20T08:27:19.809Z,19.13
2019-05-20T08:29:48.392Z,19.40
2019-05-20T08:32:17.030Z,20.00
2019-05-20T08:34:45.620Z,20.27
2019-05-20T08:37:14.269Z,18.50
2019-05-20T08:39:42.921Z,19.07
2019-05-20T08:42:11.576Z,15.57
2019-05-20T08:44:40.146Z,16.90
2019-05-20T08:47:08.903Z,14.20
2019-05-20T08:49:37.658Z,18.60
2019-05-20T08:52:06.708Z,16.03
2019-05-20T08:54:35.413Z,13.70
2019-05-20T08:57:04.079Z,17.93
2019-05-20T08:59:32.733Z,17.13
2019-05-20T09:02:01.361Z,15.30
2019-05-20T09:04:29.963Z,10.93
2019-05-20T09:07:00.982Z,13.27
2019-05-20T09:09:29.876Z,12.00
2019-05-20T09:11:59.150Z,15.13
2019-05-20T09:14:27.907Z,11.97
2019-05-20T09:16:56.707Z,11.60
2019-05-20T09:19:25.304Z,9.40
2019-05-20T09:21:53.944Z,15.53
2019-05-20T09:24:22.808Z,13.80
2019-05-20T09:26:51.414Z,15.60
2019-05-20T09:29:20.030Z,21.23
2019-05-20T09:31:48.733Z,14.20
2019-05-20T09:34:17.392Z,13.53
2019-05-20T09:36:46.111Z,16.83
2019-05-20T09:39:14.740Z,11.97
2019-05-20T09:41:43.336Z,13.97
2019-05-20T09:44:12.084Z,12.10
2019-05-20T09:46:40.946Z,9.53
2019-05-20T09:49:09.589Z,7.53
2019-05-20T09:51:38.181Z,9.30
2019-05-20T09:54:06.891Z,7.70
2019-05-20T09:56:35.577Z,9.20
2019-05-20T09:59:04.153Z,8.23
2019-05-20T10:01:32.849Z,9.30
2019-05-20T10:04:01.429Z,7.97
2019-05-20T10:06:30.153Z,7.97
2019-05-20T10:08:58.868Z,6.53
2019-05-20T10:11:27.533Z,9.33
2019-05-20T10:13:56.140Z,5.23
2019-05-20T10:16:24.761Z,5.43
2019-05-20T10:18:55.490Z,10.07
2019-05-20T10:21:23.665Z,11.30
2019-05-20T10:23:52.511Z,7.43
2019-05-20T10:26:21.318Z,5.30
2019-05-20T10:28:49.903Z,7.53
2019-05-20T10:31:19.094Z,7.58
2019-05-20T10:33:48.261Z,6.70
2019-05-20T10:36:17.440Z,8.20
2019-05-20T10:38:58.083Z,6.47
2019-05-20T10:41:17.528Z,5.90
2019-05-20T10:43:46.752Z,8.05
2019-05-20T10:46:15.979Z,11.43
2019-05-20T10:48:44.631Z,8.50
2019-05-20T10:51:13.215Z,12.80
2019-05-20T10:53:41.994Z,9.70
2019-05-20T10:56:10.895Z,9.90
2019-05-20T10:58:39.857Z,7.53
2019-05-20T11:01:08.532Z,8.43
2019-05-20T11:03:37.124Z,11.80
2019-05-20T11:06:05.992Z,9.17
2019-05-20T11:08:34.699Z,10.37
2019-05-20T11:11:03.371Z,11.40
2019-05-20T11:13:31.972Z,10.10
2019-05-20T11:16:00.664Z,9.80
2019-05-20T11:18:29.262Z,10.17
2019-05-20T11:20:57.846Z,9.10
2019-05-20T11:23:26.467Z,13.23
2019-05-20T11:25:55.051Z,7.13
2019-05-20T11:28:23.635Z,15.53
2019-05-20T11:30:52.258Z,20.50
2019-05-20T11:33:20.840Z,10.70
2019-05-20T11:35:49.478Z,9.00
2019-05-20T11:38:18.085Z,8.90
2019-05-20T11:40:47.130Z,7.47
2019-05-20T11:43:15.714Z,6.23
2019-05-20T11:45:44.454Z,7.33
2019-05-20T11:48:13.018Z,6.60
2019-05-20T11:50:41.599Z,7.80
2019-05-20T11:53:10.333Z,7.17
2019-05-20T11:55:38.910Z,11.73
2019-05-20T11:58:15.858Z,5.77
2019-05-20T12:00:37.961Z,8.53
2019-05-20T12:03:06.552Z,7.43
2019-05-20T12:05:35.126Z,7.27
2019-05-20T12:08:03.820Z,8.77
2019-05-20T12:10:32.400Z,8.57
2019-05-20T12:13:00.977Z,9.27
2019-05-20T12:15:29.620Z,7.63
2019-05-20T12:17:58.221Z,6.80
2019-05-20T12:20:26.763Z,7.00
2019-05-20T12:22:55.426Z,10.87
2019-05-20T12:25:24.049Z,6.70
2019-05-20T12:27:53.498Z,8.27
2019-05-20T12:30:22.370Z,5.73
2019-05-20T12:32:50.971Z,9.17
2019-05-20T12:35:19.765Z,9.40
2019-05-20T12:37:48.397Z,7.37
2019-05-20T12:40:17.115Z,8.93
2019-05-20T12:42:45.699Z,7.40
2019-05-20T12:45:14.660Z,6.43
2019-05-20T12:47:44.116Z,6.20
2019-05-20T12:50:13.522Z,10.00
2019-05-20T12:52:42.152Z,9.60
2019-05-20T12:55:11.061Z,11.47
2019-05-20T12:57:39.777Z,9.80
2019-05-20T13:00:11.971Z,6.40
2019-05-20T13:02:42.100Z,8.40
2019-05-20T13:05:11.350Z,9.10
2019-05-20T13:07:40.141Z,7.27
2019-05-20T13:10:26.546Z,8.90
2019-05-20T13:12:40.127Z,6.70
2019-05-20T13:15:10.093Z,9.40
2019-05-20T13:17:43.766Z,8.40
2019-05-20T13:20:10.780Z,10.17
2019-05-20T13:22:39.393Z,8.93
2019-05-20T13:25:08.198Z,9.13
2019-05-20T13:27:36.847Z,6.93
2019-05-20T13:30:07.812Z,12.70
2019-05-20T13:32:36.464Z,10.50
2019-05-20T13:35:06.886Z,6.67
2019-05-20T13:37:35.514Z,6.53
2019-05-20T13:40:06.046Z,8.53
2019-05-20T13:42:34.680Z,6.97
2019-05-20T13:45:03.625Z,7.70
2019-05-20T13:47:32.269Z,9.43
2019-05-20T13:50:00.861Z,7.10
2019-05-20T13:52:29.549Z,9.40
2019-05-20T13:54:58.132Z,10.80
2019-05-20T13:57:26.786Z,8.17
2019-05-20T13:59:55.952Z,11.53
2019-05-20T14:02:24.531Z,4.67
2019-05-20T14:04:53.117Z,9.30
2019-05-20T14:07:22.043Z,5.90
2019-05-20T14:09:50.624Z,11.90
2019-05-20T14:12:19.270Z,7.47
2019-05-20T14:14:48.233Z,17.70
2019-05-20T14:17:17.036Z,8.60
2019-05-20T14:19:45.958Z,10.20
2019-05-20T14:22:14.742Z,15.93
2019-05-20T14:24:43.617Z,15.07
2019-05-20T14:27:12.448Z,6.17
2019-05-20T14:29:41.238Z,21.03
2019-05-20T14:32:09.894Z,17.47
2019-05-20T14:34:38.475Z,20.13
2019-05-20T14:37:07.110Z,17.60
2019-05-20T14:39:35.861Z,8.67
2019-05-20T14:42:04.510Z,10.83
2019-05-20T14:44:33.197Z,5.87
2019-05-20T14:47:01.894Z,5.80
2019-05-20T14:49:30.556Z,11.20
2019-05-20T14:51:59.188Z,25.50
2019-05-20T14:54:27.769Z,13.87
2019-05-20T14:56:56.349Z,10.27
2019-05-20T14:59:24.969Z,8.60
2019-05-20T15:01:53.761Z,8.23
2019-05-20T15:04:22.461Z,9.63
2019-05-20T15:06:51.074Z,14.60
2019-05-20T15:09:19.660Z,15.40
2019-05-20T15:11:48.236Z,12.10
2019-05-20T15:14:16.858Z,11.23
2019-05-20T15:16:45.500Z,12.93
2019-05-20T15:19:16.653Z,9.43
2019-05-20T15:21:45.233Z,11.57
2019-05-20T15:24:13.899Z,19.00
2019-05-20T15:26:42.784Z,14.97
2019-05-20T15:29:27.060Z,10.97
2019-05-20T15:31:42.005Z,17.03
2019-05-20T15:34:11.310Z,9.20
2019-05-20T15:36:40.129Z,11.40
2019-05-20T15:39:08.867Z,10.47
2019-05-20T15:41:37.455Z,16.00
2019-05-20T15:44:06.204Z,15.23
2019-05-20T15:46:34.790Z,15.60
2019-05-20T15:49:03.441Z,9.70
2019-05-20T15:51:32.086Z,9.77
2019-05-20T15:54:00.648Z,10.80
2019-05-20T15:56:29.248Z,15.33
2019-05-20T15:58:57.877Z,20.73
2019-05-20T16:01:26.462Z,12.87
2019-05-20T16:03:55.107Z,13.47
2019-05-20T16:06:23.800Z,15.10
2019-05-20T16:08:52.385Z,14.60
2019-05-20T16:11:20.971Z,9.63
2019-05-20T16:13:49.600Z,10.37
2019-05-20T16:16:18.188Z,25.70
2019-05-20T16:18:46.772Z,13.77
2019-05-20T16:21:15.472Z,16.60
2019-05-20T16:23:44.055Z,14.20
2019-05-20T16:26:12.707Z,9.97
2019-05-20T16:28:41.410Z,10.50
2019-05-20T16:31:11.883Z,5.63
2019-05-20T16:33:40.515Z,19.10
2019-05-20T16:36:09.109Z,7.70
2019-05-20T16:38:37.793Z,9.17
2019-05-20T16:41:06.369Z,9.73
2019-05-20T16:43:35.159Z,8.17
2019-05-20T16:46:03.839Z,9.50
2019-05-20T16:48:32.431Z,36.97
2019-05-20T16:51:01.144Z,12.90
2019-05-20T16:53:29.803Z,8.00
2019-05-20T16:55:58.461Z,9.93
2019-05-20T16:58:27.276Z,9.13
2019-05-20T17:00:55.873Z,10.57
2019-05-20T17:03:24.449Z,9.90
2019-05-20T17:05:53.073Z,12.00
2019-05-20T17:08:21.664Z,20.43
2019-05-20T17:10:51.783Z,10.97
2019-05-20T17:13:20.680Z,7.50
2019-05-20T17:18:44.275Z,10.10
2019-05-20T17:21:12.933Z,8.13
2019-05-20T17:23:41.521Z,7.53
2019-05-20T17:26:10.147Z,11.07
2019-05-20T17:28:38.731Z,9.30
2019-05-20T17:31:07.385Z,10.00
2019-05-20T17:33:36.083Z,10.47
2019-05-20T17:36:04.817Z,22.90
2019-05-20T17:38:33.391Z,8.33
2019-05-20T17:41:02.017Z,7.10
2019-05-20T17:43:30.757Z,9.27
2019-05-20T17:45:59.396Z,6.60
2019-05-20T17:48:28.020Z,11.83
2019-05-20T17:50:56.642Z,9.97
2019-05-20T17:53:25.200Z,11.60
2019-05-20T17:55:53.811Z,10.90
2019-05-20T17:58:22.388Z,9.70
2019-05-20T18:00:51.202Z,8.33
2019-05-20T18:03:19.903Z,7.57
2019-05-20T18:05:48.484Z,8.40
2019-05-20T18:08:17.095Z,7.77
2019-05-20T18:10:45.714Z,7.50
2019-05-20T18:13:14.570Z,11.60
2019-05-20T18:15:43.231Z,21.60
2019-05-20T18:18:11.868Z,11.23
2019-05-20T18:20:40.456Z,11.47
2019-05-20T18:23:09.112Z,12.23
2019-05-20T18:25:37.751Z,9.27
2019-05-20T18:28:06.423Z,9.73
2019-05-20T18:30:35.240Z,9.50
2019-05-20T18:33:03.872Z,8.83
2019-05-20T18:35:32.500Z,18.80
2019-05-20T18:38:01.087Z,10.07
2019-05-20T18:40:29.701Z,7.50
2019-05-20T18:42:58.278Z,6.17
2019-05-20T18:45:27.341Z,10.40
2019-05-20T18:47:55.982Z,9.73
2019-05-20T18:50:24.562Z,11.33
2019-05-20T18:52:53.225Z,12.50
2019-05-20T18:55:21.889Z,9.70
2019-05-20T18:57:50.476Z,5.70
2019-05-20T19:00:19.560Z,7.07
2019-05-20T19:02:48.191Z,4.53
2019-05-20T19:05:16.902Z,6.23
2019-05-20T19:07:46.347Z,5.47
2019-05-20T19:10:15.279Z,5.20
2019-05-20T19:12:43.862Z,4.77
2019-05-20T19:15:12.957Z,4.10
2019-05-20T19:17:43.085Z,5.33
2019-05-20T19:20:11.800Z,3.90
2019-05-20T19:22:40.452Z,4.43
2019-05-20T19:25:09.374Z,3.73
2019-05-20T19:27:37.978Z,4.47
2019-05-20T19:30:08.603Z,5.40
2019-05-20T19:32:37.227Z,10.10
2019-05-20T19:35:08.117Z,3.30
2019-05-20T19:37:37.408Z,4.70
2019-05-20T19:40:07.676Z,5.77
2019-05-20T19:42:36.788Z,3.13
2019-05-20T19:45:06.104Z,3.20
2019-05-20T19:47:35.145Z,4.37
2019-05-20T19:50:05.706Z,5.87
2019-05-20T19:52:34.362Z,5.10
2019-05-20T19:55:03.055Z,5.50
2019-05-20T19:57:31.982Z,5.00
2019-05-20T20:00:00.560Z,6.27
2019-05-20T20:02:29.165Z,4.20
2019-05-20T20:04:57.748Z,5.53
2019-05-20T20:07:28.784Z,8.43
2019-05-20T20:09:56.672Z,9.00
2019-05-20T20:12:25.325Z,5.20
2019-05-20T20:14:53.904Z,6.43
2019-05-20T20:17:22.570Z,7.00
2019-05-20T20:19:51.185Z,6.93
2019-05-20T20:22:19.763Z,6.27
2019-05-20T20:24:48.377Z,8.43
2019-05-20T20:27:17.037Z,4.20
2019-05-20T20:29:45.797Z,8.23
2019-05-20T20:32:14.412Z,5.30
2019-05-20T20:34:42.997Z,7.40
2019-05-20T20:37:11.572Z,4.03
2019-05-20T20:39:40.194Z,3.33
2019-05-20T20:42:08.847Z,5.00
2019-05-20T20:44:37.673Z,11.57
2019-05-20T20:47:06.368Z,3.67
2019-05-20T20:49:34.938Z,3.83
2019-05-20T20:52:03.692Z,4.97
2019-05-20T20:54:32.508Z,5.83
2019-05-20T20:57:01.139Z,4.90
2019-05-20T20:59:29.741Z,5.60
2019-05-20T21:01:59.228Z,3.23
2019-05-20T21:04:28.125Z,6.60
2019-05-20T21:06:56.709Z,4.50
2019-05-20T21:09:25.334Z,5.90
2019-05-20T21:11:53.980Z,5.30
2019-05-20T21:14:22.556Z,3.90
2019-05-20T21:16:51.175Z,6.00
2019-05-20T21:19:19.749Z,5.50
2019-05-20T21:21:48.324Z,3.80
2019-05-20T21:24:16.935Z,4.17
2019-05-20T21:26:45.577Z,4.37
2019-05-20T21:29:14.200Z,11.20
2019-05-20T21:31:42.787Z,5.17
2019-05-20T21:34:11.363Z,7.90
2019-05-20T21:36:47.789Z,7.10
2019-05-20T21:39:10.292Z,4.47
2019-05-20T21:41:39.100Z,4.07
2019-05-20T21:44:07.712Z,4.30
2019-05-20T21:46:36.315Z,2.90
2019-05-20T21:49:04.958Z,4.57
2019-05-20T21:51:33.535Z,3.93
2019-05-20T21:54:02.163Z,13.17
2019-05-20T21:56:30.741Z,6.40
2019-05-20T21:58:59.323Z,7.17
2019-05-20T22:01:28.405Z,4.80
2019-05-20T22:03:56.983Z,3.03
2019-05-20T22:06:25.559Z,3.80
2019-05-20T22:08:54.179Z,9.73
2019-05-20T22:11:22.751Z,3.50
2019-05-20T22:13:51.330Z,2.97
2019-05-20T22:16:19.971Z,2.60
2019-05-20T22:18:48.529Z,2.87
2019-05-20T22:21:18.819Z,2.73
2019-05-20T22:23:49.078Z,3.83
2019-05-20T22:26:17.647Z,3.73
2019-05-20T22:28:46.292Z,5.73
2019-05-20T22:31:14.984Z,4.07
2019-05-20T22:33:43.567Z,3.50
2019-05-20T22:36:12.157Z,4.63
2019-05-20T22:38:40.917Z,3.10
2019-05-20T22:41:09.567Z,4.90
2019-05-20T22:43:38.149Z,3.47
2019-05-20T22:46:06.765Z,4.37
2019-05-20T22:48:35.343Z,3.57
2019-05-20T22:51:03.990Z,3.07
2019-05-20T22:53:32.735Z,3.00
2019-05-20T22:56:01.323Z,2.10
2019-05-20T22:58:29.905Z,3.60
2019-05-20T23:00:58.597Z,2.33
2019-05-20T23:03:27.171Z,2.07
2019-05-20T23:05:55.743Z,4.20
2019-05-20T23:08:24.358Z,3.30
2019-05-20T23:10:53.028Z,2.83
2019-05-20T23:13:21.593Z,1.80
2019-05-20T23:15:50.211Z,2.27
2019-05-20T23:18:18.819Z,3.50
2019-05-20T23:20:47.516Z,2.03
2019-05-20T23:23:16.140Z,1.33
2019-05-20T23:25:44.720Z,1.80
2019-05-20T23:28:13.381Z,1.53
2019-05-20T23:30:42.265Z,1.53
2019-05-20T23:33:10.858Z,1.70
2019-05-20T23:35:39.437Z,3.00
2019-05-20T23:38:08.048Z,1.50
2019-05-20T23:40:36.631Z,2.60
2019-05-20T23:43:05.210Z,2.50
2019-05-20T23:45:33.836Z,2.27
2019-05-20T23:48:02.416Z,2.80
2019-05-20T23:50:31.000Z,1.97
2019-05-20T23:52:59.623Z,2.00
2019-05-20T23:55:28.267Z,2.73
2019-05-20T23:57:56.847Z,1.80
